createdAt,value
2022-12-23T00:00:41.696Z,15.12
2022-12-23T00:03:08.546Z,15.13
2022-12-23T00:05:38.137Z,15.13
2022-12-23T00:08:06.361Z,15.16
2022-12-23T00:10:34.192Z,15.15
2022-12-23T00:13:19.662Z,15.16
2022-12-23T00:15:46.418Z,15.17
2022-12-23T00:18:13.094Z,15.16
2022-12-23T00:20:39.916Z,15.17
2022-12-23T00:23:06.798Z,15.18
2022-12-23T00:25:41.049Z,15.17
2022-12-23T00:28:11.742Z,15.17
2022-12-23T00:30:59.957Z,15.18
2022-12-23T00:33:32.015Z,15.17
2022-12-23T00:35:59.567Z,15.20
2022-12-23T00:38:45.645Z,15.19
2022-12-23T00:41:36.068Z,15.20
2022-12-23T00:44:04.377Z,15.20
2022-12-23T00:46:31.803Z,15.20
2022-12-23T00:49:17.383Z,15.22
2022-12-23T00:51:44.292Z,15.22
2022-12-23T00:54:10.988Z,15.22
2022-12-23T00:56:37.987Z,15.23
2022-12-23T00:59:04.839Z,15.24
2022-12-23T01:01:50.553Z,15.24
2022-12-23T01:04:36.537Z,15.25
2022-12-23T01:07:04.165Z,15.24
2022-12-23T01:09:30.885Z,15.25
2022-12-23T01:11:57.708Z,15.25
2022-12-23T01:14:24.719Z,15.25
2022-12-23T01:16:52.049Z,15.26
2022-12-23T01:19:21.866Z,15.26
2022-12-23T01:21:48.715Z,15.28
2022-12-23T01:24:15.457Z,15.29
2022-12-23T01:26:42.200Z,15.29
2022-12-23T01:29:08.904Z,15.30
2022-12-23T01:31:35.664Z,15.30
2022-12-23T01:34:02.343Z,15.30
2022-12-23T01:36:29.151Z,15.31
2022-12-23T01:38:56.714Z,15.31
2022-12-23T01:42:06.196Z,15.32
2022-12-23T01:45:00.810Z,15.34
2022-12-23T01:47:40.940Z,15.32
2022-12-23T01:50:07.815Z,15.33
2022-12-23T01:52:39.827Z,15.32
2022-12-23T01:55:07.138Z,15.33
2022-12-23T01:57:34.539Z,15.33
2022-12-23T02:00:23.104Z,15.33
2022-12-23T02:03:09.870Z,15.34
2022-12-23T02:05:36.923Z,15.34
2022-12-23T02:08:33.359Z,15.33
2022-12-23T02:11:15.409Z,15.35
2022-12-23T02:14:07.170Z,15.35
2022-12-23T02:16:38.657Z,15.35
2022-12-23T02:19:18.453Z,15.36
2022-12-23T02:22:01.804Z,15.37
2022-12-23T02:24:41.096Z,15.37
2022-12-23T02:27:30.803Z,15.39
2022-12-23T02:30:04.990Z,15.39
2022-12-23T02:33:02.541Z,15.39
2022-12-23T02:35:41.282Z,15.39
2022-12-23T02:38:26.894Z,15.37
2022-12-23T02:41:12.226Z,15.39
2022-12-23T02:44:05.146Z,15.38
2022-12-23T02:46:37.026Z,15.39
2022-12-23T02:49:07.594Z,15.36
2022-12-23T02:51:35.211Z,15.45
2022-12-23T02:54:04.576Z,15.40
2022-12-23T02:56:33.774Z,15.37
2022-12-23T02:59:05.664Z,15.36
2022-12-23T03:01:33.806Z,15.37
2022-12-23T03:04:00.792Z,15.40
2022-12-23T03:06:31.631Z,15.41
2022-12-23T03:08:59.814Z,15.43
2022-12-23T03:12:01.795Z,15.43
2022-12-23T03:14:53.029Z,15.41
2022-12-23T03:17:46.571Z,15.39
2022-12-23T03:20:20.777Z,15.38
2022-12-23T03:23:12.629Z,15.40
2022-12-23T03:25:44.623Z,15.41
2022-12-23T03:28:18.278Z,15.41
2022-12-23T03:30:48.775Z,15.40
2022-12-23T03:33:19.904Z,15.50
2022-12-23T03:35:54.303Z,15.44
2022-12-23T03:38:22.095Z,15.43
2022-12-23T03:40:52.328Z,15.42
2022-12-23T03:43:29.063Z,15.43
2022-12-23T03:46:09.275Z,15.43
2022-12-23T03:48:40.155Z,15.44
2022-12-23T03:51:15.505Z,15.45
2022-12-23T03:53:47.018Z,15.44
2022-12-23T03:56:20.483Z,15.45
2022-12-23T03:58:58.058Z,15.45
2022-12-23T04:01:54.942Z,15.45
2022-12-23T04:04:28.617Z,15.46
2022-12-23T04:06:58.420Z,15.47
2022-12-23T04:09:26.726Z,15.50
2022-12-23T04:11:53.866Z,15.50
2022-12-23T04:14:22.224Z,15.50
2022-12-23T04:16:53.639Z,15.50
2022-12-23T04:19:20.404Z,15.50
2022-12-23T04:21:47.080Z,15.51
2022-12-23T04:24:14.097Z,15.51
2022-12-23T04:26:40.729Z,15.51
2022-12-23T04:29:07.471Z,15.52
2022-12-23T04:31:34.331Z,15.52
2022-12-23T04:34:01.144Z,15.52
2022-12-23T04:36:27.772Z,15.52
2022-12-23T04:38:54.505Z,15.51
2022-12-23T04:41:21.245Z,15.49
2022-12-23T04:43:52.925Z,15.50
2022-12-23T04:46:20.722Z,15.51
2022-12-23T04:48:47.491Z,15.51
2022-12-23T04:51:14.250Z,15.52
2022-12-23T04:53:40.976Z,15.53
2022-12-23T04:56:07.931Z,15.53
2022-12-23T04:58:34.562Z,15.54
2022-12-23T05:01:06.663Z,15.53
2022-12-23T05:03:33.827Z,15.54
2022-12-23T05:06:00.984Z,15.55
2022-12-23T05:08:28.248Z,15.55
2022-12-23T05:10:55.193Z,15.56
2022-12-23T05:13:22.272Z,15.56
2022-12-23T05:15:50.573Z,15.56
2022-12-23T05:18:17.453Z,15.59
2022-12-23T05:20:44.424Z,15.58
2022-12-23T05:23:11.711Z,15.57
2022-12-23T05:25:39.145Z,15.59
2022-12-23T05:28:06.782Z,15.58
2022-12-23T05:30:33.913Z,15.59
2022-12-23T05:33:00.920Z,15.61
2022-12-23T05:35:27.879Z,15.61
2022-12-23T05:37:55.049Z,15.63
2022-12-23T05:40:23.926Z,15.64
2022-12-23T05:42:53.821Z,15.64
2022-12-23T05:45:20.851Z,15.64
2022-12-23T05:47:47.652Z,15.66
2022-12-23T05:50:14.736Z,15.67
2022-12-23T05:52:41.729Z,15.67
2022-12-23T05:55:09.122Z,15.68
2022-12-23T05:57:36.100Z,15.67
2022-12-23T06:00:03.783Z,15.68
2022-12-23T06:02:44.376Z,15.70
2022-12-23T06:05:19.382Z,15.70
2022-12-23T06:07:50.657Z,15.71
2022-12-23T06:10:23.372Z,15.72
2022-12-23T06:12:51.249Z,15.74
2022-12-23T06:15:18.074Z,15.75
2022-12-23T06:17:45.073Z,15.74
2022-12-23T06:20:19.604Z,15.75
2022-12-23T06:22:47.068Z,15.76
2022-12-23T06:25:14.020Z,15.76
2022-12-23T06:27:40.941Z,15.75
2022-12-23T06:30:08.452Z,15.77
2022-12-23T06:32:38.613Z,15.77
2022-12-23T06:35:07.245Z,15.79
2022-12-23T06:37:34.150Z,15.79
2022-12-23T06:40:00.963Z,15.79
2022-12-23T06:42:27.740Z,15.79
2022-12-23T06:44:54.508Z,15.80
2022-12-23T06:47:21.189Z,15.81
2022-12-23T06:49:47.968Z,15.80
2022-12-23T06:52:14.701Z,15.82
2022-12-23T06:54:41.553Z,15.83
2022-12-23T06:57:08.237Z,15.84
2022-12-23T06:59:34.964Z,15.85
2022-12-23T07:02:01.922Z,15.86
2022-12-23T07:04:28.888Z,15.86
2022-12-23T07:06:55.611Z,15.84
2022-12-23T07:09:22.442Z,15.77
2022-12-23T07:11:49.092Z,15.67
2022-12-23T07:14:15.844Z,15.49
2022-12-23T07:16:42.763Z,15.29
2022-12-23T07:19:09.600Z,15.16
2022-12-23T07:21:36.783Z,15.11
2022-12-23T07:24:03.740Z,15.08
2022-12-23T07:26:30.519Z,15.02
2022-12-23T07:28:57.283Z,14.98
2022-12-23T07:31:24.075Z,15.00
2022-12-23T07:33:51.035Z,15.02
2022-12-23T07:36:17.866Z,15.03
2022-12-23T07:38:44.626Z,15.04
2022-12-23T07:41:11.368Z,15.08
2022-12-23T07:43:38.104Z,15.12
2022-12-23T07:46:09.065Z,15.12
2022-12-23T07:48:43.176Z,15.14
2022-12-23T07:51:13.784Z,15.16
2022-12-23T07:53:40.641Z,15.15
2022-12-23T07:56:07.644Z,15.13
2022-12-23T07:58:34.456Z,15.12
2022-12-23T08:01:06.201Z,15.15
2022-12-23T08:03:33.120Z,15.18
2022-12-23T08:06:04.779Z,15.17
2022-12-23T08:08:32.244Z,15.20
2022-12-23T08:11:00.843Z,15.17
2022-12-23T08:13:28.041Z,15.20
2022-12-23T08:15:59.753Z,15.17
2022-12-23T08:18:28.519Z,15.15
2022-12-23T08:21:00.275Z,15.15
2022-12-23T08:23:28.305Z,15.20
2022-12-23T08:26:09.309Z,15.24
2022-12-23T08:28:37.375Z,15.27
2022-12-23T08:31:06.178Z,15.26
2022-12-23T08:33:34.326Z,15.28
2022-12-23T08:36:02.633Z,15.30
2022-12-23T08:38:33.871Z,15.30
2022-12-23T08:41:04.572Z,15.27
2022-12-23T08:43:36.350Z,15.28
2022-12-23T08:46:11.069Z,15.30
2022-12-23T08:48:39.628Z,15.30
2022-12-23T08:51:11.506Z,15.26
2022-12-23T08:53:39.336Z,15.25
2022-12-23T08:56:12.318Z,15.28
2022-12-23T08:58:41.139Z,15.24
2022-12-23T09:01:09.629Z,15.27
2022-12-23T09:03:37.238Z,15.31
2022-12-23T09:06:08.916Z,15.25
2022-12-23T09:08:36.048Z,15.21
2022-12-23T09:11:03.554Z,15.20
2022-12-23T09:13:35.630Z,15.24
2022-12-23T09:16:03.613Z,15.28
2022-12-23T09:18:31.205Z,15.25
2022-12-23T09:21:06.025Z,15.27
2022-12-23T09:23:33.248Z,15.37
2022-12-23T09:26:00.047Z,15.38
2022-12-23T09:28:27.273Z,15.38
2022-12-23T09:30:53.913Z,15.35
2022-12-23T09:33:20.669Z,15.35
2022-12-23T09:35:47.377Z,15.37
2022-12-23T09:38:14.415Z,15.43
2022-12-23T09:40:42.015Z,15.40
2022-12-23T09:43:38.633Z,15.42
2022-12-23T09:46:16.810Z,15.54
2022-12-23T09:48:48.355Z,15.57
2022-12-23T09:51:16.233Z,15.58
2022-12-23T09:53:50.760Z,15.57
2022-12-23T09:56:28.165Z,15.54
2022-12-23T09:59:17.047Z,15.53
2022-12-23T10:01:56.049Z,15.54
2022-12-23T10:04:22.947Z,15.56
2022-12-23T10:07:31.129Z,15.64
2022-12-23T10:09:58.737Z,15.60
2022-12-23T10:12:40.360Z,15.55
2022-12-23T10:15:37.457Z,15.58
2022-12-23T10:18:12.085Z,15.54
2022-12-23T10:20:48.421Z,15.44
2022-12-23T10:23:27.171Z,15.44
2022-12-23T10:25:53.921Z,15.52
2022-12-23T10:28:20.646Z,15.49
2022-12-23T10:31:17.254Z,15.43
2022-12-23T10:33:52.001Z,15.49
2022-12-23T10:36:51.697Z,15.53
2022-12-23T10:39:45.301Z,15.55
2022-12-23T10:42:33.444Z,15.56
2022-12-23T10:45:15.498Z,15.50
2022-12-23T10:47:50.567Z,15.43
2022-12-23T10:50:20.230Z,15.41
2022-12-23T10:52:47.852Z,15.43
2022-12-23T10:55:28.520Z,15.48
2022-12-23T10:58:05.060Z,15.49
2022-12-23T11:00:31.975Z,15.51
2022-12-23T11:03:07.480Z,15.44
2022-12-23T11:05:34.667Z,15.50
2022-12-23T11:08:01.983Z,15.51
2022-12-23T11:10:33.020Z,15.39
2022-12-23T11:13:00.473Z,15.31
2022-12-23T11:15:33.171Z,15.30
2022-12-23T11:18:12.259Z,15.33
2022-12-23T11:20:41.564Z,15.32
2022-12-23T11:23:25.651Z,15.32
2022-12-23T11:26:14.656Z,15.30
2022-12-23T11:29:18.678Z,15.31
2022-12-23T11:31:54.528Z,15.32
2022-12-23T11:34:29.581Z,15.37
2022-12-23T11:37:03.649Z,15.43
2022-12-23T11:39:41.268Z,15.50
2022-12-23T11:42:28.564Z,15.60
2022-12-23T11:44:57.249Z,15.63
2022-12-23T11:47:24.025Z,15.63
2022-12-23T11:49:52.973Z,15.59
2022-12-23T11:52:22.011Z,15.48
2022-12-23T11:54:56.840Z,15.53
2022-12-23T11:57:39.527Z,15.62
2022-12-23T12:00:29.052Z,15.61
2022-12-23T12:02:59.071Z,15.64
2022-12-23T12:05:56.024Z,15.57
2022-12-23T12:08:25.625Z,15.51
2022-12-23T12:10:53.268Z,15.53
2022-12-23T12:13:38.765Z,15.57
2022-12-23T12:16:12.051Z,15.53
2022-12-23T12:18:40.296Z,15.50
2022-12-23T12:21:14.386Z,15.51
2022-12-23T12:23:48.444Z,15.49
2022-12-23T12:26:28.032Z,15.50
2022-12-23T12:29:09.503Z,15.56
2022-12-23T12:31:48.375Z,15.62
2022-12-23T12:34:34.278Z,15.66
2022-12-23T12:37:30.392Z,15.65
2022-12-23T12:40:04.241Z,15.69
2022-12-23T12:42:41.076Z,15.69
2022-12-23T12:45:23.950Z,15.69
2022-12-23T12:48:00.214Z,15.67
2022-12-23T12:50:32.887Z,15.66
2022-12-23T12:53:11.793Z,15.57
2022-12-23T12:55:42.455Z,15.56
2022-12-23T12:58:19.657Z,15.52
2022-12-23T13:01:13.151Z,15.51
2022-12-23T13:04:12.556Z,15.55
2022-12-23T13:06:55.623Z,15.56
2022-12-23T13:09:44.096Z,15.56
2022-12-23T13:12:36.256Z,15.59
2022-12-23T13:15:21.102Z,15.62
2022-12-23T13:17:50.961Z,15.67
2022-12-23T13:20:25.798Z,15.67
2022-12-23T13:22:55.890Z,15.65
2022-12-23T13:25:28.055Z,15.61
2022-12-23T13:28:07.329Z,15.64
2022-12-23T13:30:39.630Z,15.68
2022-12-23T13:33:48.219Z,15.65
2022-12-23T13:36:39.600Z,15.61
2022-12-23T13:39:40.319Z,15.56
2022-12-23T13:42:13.563Z,15.52
2022-12-23T13:44:40.580Z,15.57
2022-12-23T13:47:25.947Z,15.61
2022-12-23T13:49:55.544Z,15.57
2022-12-23T13:52:32.018Z,15.58
2022-12-23T13:55:07.674Z,15.58
2022-12-23T13:57:57.192Z,15.58
2022-12-23T14:00:34.395Z,15.61
2022-12-23T14:03:01.193Z,15.66
2022-12-23T14:05:57.211Z,15.68
2022-12-23T14:08:58.369Z,15.61
2022-12-23T14:11:26.320Z,15.60
2022-12-23T14:14:02.110Z,15.59
2022-12-23T14:17:07.767Z,15.55
2022-12-23T14:19:42.375Z,15.46
2022-12-23T14:22:37.064Z,15.43
2022-12-23T14:25:37.342Z,15.50
2022-12-23T14:28:22.761Z,15.49
2022-12-23T14:30:49.625Z,15.42
2022-12-23T14:33:26.665Z,15.48
2022-12-23T14:36:14.351Z,15.46
2022-12-23T14:38:41.554Z,15.56
2022-12-23T14:41:37.160Z,15.53
2022-12-23T14:44:04.118Z,15.52
2022-12-23T14:46:37.150Z,15.54
2022-12-23T14:49:36.820Z,15.49
2022-12-23T14:51:51.066Z,15.45
2022-12-23T14:54:20.631Z,15.49
2022-12-23T14:56:47.399Z,15.52
2022-12-23T14:59:23.798Z,15.51
2022-12-23T15:01:56.158Z,15.48
2022-12-23T15:04:55.877Z,15.50
2022-12-23T15:07:28.092Z,15.52
2022-12-23T15:10:01.535Z,15.48
2022-12-23T15:12:34.687Z,15.44
2022-12-23T15:15:20.817Z,15.41
2022-12-23T15:17:48.071Z,15.43
2022-12-23T15:20:23.580Z,15.43
2022-12-23T15:22:50.999Z,15.37
2022-12-23T15:25:31.291Z,15.31
2022-12-23T15:28:01.957Z,15.28
2022-12-23T15:30:37.298Z,15.26
2022-12-23T15:33:27.977Z,15.27
2022-12-23T15:35:53.489Z,15.30
2022-12-23T15:38:20.705Z,15.28
2022-12-23T15:41:06.155Z,15.32
2022-12-23T15:43:32.943Z,15.38
2022-12-23T15:46:26.795Z,15.34
2022-12-23T15:48:56.411Z,15.28
2022-12-23T15:52:07.200Z,15.30
2022-12-23T15:54:27.397Z,15.37
2022-12-23T15:56:54.585Z,15.48
2022-12-23T15:59:25.239Z,15.44
2022-12-23T16:01:52.475Z,15.38
2022-12-23T16:04:29.393Z,15.36
2022-12-23T16:06:56.479Z,15.40
2022-12-23T16:09:32.307Z,15.43
2022-12-23T16:12:22.289Z,15.53
2022-12-23T16:14:57.972Z,15.65
2022-12-23T16:17:31.989Z,15.74
2022-12-23T16:20:38.893Z,15.87
2022-12-23T16:23:05.790Z,15.92
2022-12-23T16:25:33.621Z,15.95
2022-12-23T16:28:06.945Z,16.00
2022-12-23T16:30:36.281Z,16.04
2022-12-23T16:33:22.563Z,16.07
2022-12-23T16:35:49.339Z,16.12
2022-12-23T16:38:25.765Z,16.14
2022-12-23T16:40:55.500Z,16.19
2022-12-23T16:43:24.082Z,16.21
2022-12-23T16:45:55.566Z,16.24
2022-12-23T16:48:32.393Z,16.26
2022-12-23T16:51:00.616Z,16.29
2022-12-23T16:53:27.823Z,16.31
2022-12-23T16:56:00.307Z,16.33
2022-12-23T16:58:27.422Z,16.35
2022-12-23T17:00:54.300Z,16.36
2022-12-23T17:03:21.187Z,16.36
2022-12-23T17:05:48.329Z,16.37
2022-12-23T17:08:15.250Z,16.39
2022-12-23T17:10:44.656Z,16.42
2022-12-23T17:13:17.605Z,16.42
2022-12-23T17:15:45.881Z,16.45
2022-12-23T17:18:14.585Z,16.44
2022-12-23T17:20:42.697Z,16.47
2022-12-23T17:23:27.396Z,16.48
2022-12-23T17:25:54.262Z,16.49
2022-12-23T17:28:21.761Z,16.50
2022-12-23T17:30:54.459Z,16.52
2022-12-23T17:33:21.736Z,16.53
2022-12-23T17:35:48.495Z,16.54
2022-12-23T17:38:16.650Z,16.54
2022-12-23T17:40:45.628Z,16.56
2022-12-23T17:43:14.214Z,16.56
2022-12-23T17:45:41.373Z,16.57
2022-12-23T17:48:16.352Z,16.57
2022-12-23T17:50:47.298Z,16.59
2022-12-23T17:53:16.233Z,16.59
2022-12-23T17:55:43.477Z,16.61
2022-12-23T17:58:10.510Z,16.60
2022-12-23T18:00:38.214Z,16.61
2022-12-23T18:03:06.230Z,16.61
2022-12-23T18:05:35.254Z,16.62
2022-12-23T18:08:03.162Z,16.62
2022-12-23T18:10:33.008Z,16.61
2022-12-23T18:13:06.624Z,16.63
2022-12-23T18:15:36.968Z,16.64
2022-12-23T18:18:28.667Z,16.63
2022-12-23T18:20:58.369Z,16.64
2022-12-23T18:23:31.544Z,16.60
2022-12-23T18:25:59.566Z,16.61
2022-12-23T18:28:33.213Z,16.61
2022-12-23T18:31:01.332Z,16.63
2022-12-23T18:33:30.253Z,16.64
2022-12-23T18:35:57.304Z,16.64
2022-12-23T18:38:24.038Z,16.63
2022-12-23T18:40:53.929Z,16.62
2022-12-23T18:43:22.809Z,16.63
2022-12-23T18:45:53.264Z,16.65
2022-12-23T18:48:20.505Z,16.66
2022-12-23T18:50:47.283Z,16.65
2022-12-23T18:53:23.908Z,16.64
2022-12-23T18:55:51.923Z,16.63
2022-12-23T18:58:18.985Z,16.62
2022-12-23T19:00:46.474Z,16.61
2022-12-23T19:03:26.689Z,16.59
2022-12-23T19:05:54.678Z,16.61
2022-12-23T19:08:27.443Z,16.59
2022-12-23T19:10:54.757Z,16.56
2022-12-23T19:13:21.551Z,16.54
2022-12-23T19:15:48.416Z,16.56
2022-12-23T19:18:17.923Z,16.56
2022-12-23T19:20:45.724Z,16.57
2022-12-23T19:23:12.779Z,16.54
2022-12-23T19:25:49.265Z,16.52
2022-12-23T19:28:19.183Z,16.55
2022-12-23T19:30:46.039Z,16.53
2022-12-23T19:33:13.404Z,16.54
2022-12-23T19:35:44.182Z,16.50
2022-12-23T19:38:11.038Z,16.52
2022-12-23T19:40:38.243Z,16.52
2022-12-23T19:43:05.100Z,16.52
2022-12-23T19:45:32.008Z,16.52
2022-12-23T19:47:58.897Z,16.48
2022-12-23T19:50:27.220Z,16.46
2022-12-23T19:52:56.397Z,16.47
2022-12-23T19:55:23.483Z,16.47
2022-12-23T19:57:50.167Z,16.46
2022-12-23T20:00:17.089Z,16.44
2022-12-23T20:02:43.756Z,16.44
2022-12-23T20:05:10.723Z,16.44
2022-12-23T20:07:43.392Z,16.42
2022-12-23T20:10:11.537Z,16.42
2022-12-23T20:12:39.362Z,16.42
2022-12-23T20:15:06.640Z,16.41
2022-12-23T20:17:33.390Z,16.42
2022-12-23T20:20:00.174Z,16.40
2022-12-23T20:22:26.966Z,16.41
2022-12-23T20:24:53.880Z,16.40
2022-12-23T20:27:25.990Z,16.40
2022-12-23T20:29:54.704Z,16.40
2022-12-23T20:32:21.387Z,16.40
2022-12-23T20:34:50.030Z,16.38
2022-12-23T20:37:17.669Z,16.38
2022-12-23T20:39:44.436Z,16.37
2022-12-23T20:42:11.152Z,16.36
2022-12-23T20:44:38.148Z,16.35
2022-12-23T20:47:06.223Z,16.36
2022-12-23T20:49:33.429Z,16.34
2022-12-23T20:52:00.225Z,16.34
2022-12-23T20:54:32.711Z,16.34
2022-12-23T20:57:00.797Z,16.36
2022-12-23T20:59:27.471Z,16.35
2022-12-23T21:01:54.828Z,16.33
2022-12-23T21:04:22.655Z,16.32
2022-12-23T21:06:49.870Z,16.32
2022-12-23T21:09:16.845Z,16.32
2022-12-23T21:11:45.789Z,16.29
2022-12-23T21:14:12.680Z,16.30
2022-12-23T21:16:40.089Z,16.29
2022-12-23T21:19:09.023Z,16.27
2022-12-23T21:21:35.871Z,16.26
2022-12-23T21:24:04.788Z,16.26
2022-12-23T21:26:33.188Z,16.24
2022-12-23T21:29:00.917Z,16.23
2022-12-23T21:31:29.393Z,16.24
2022-12-23T21:33:57.085Z,16.25
2022-12-23T21:36:26.299Z,16.22
2022-12-23T21:38:53.286Z,16.23
2022-12-23T21:41:25.768Z,16.22
2022-12-23T21:43:52.544Z,16.23
2022-12-23T21:46:21.422Z,16.20
2022-12-23T21:48:49.034Z,16.20
2022-12-23T21:51:17.981Z,16.20
2022-12-23T21:53:46.378Z,16.21
2022-12-23T21:56:16.244Z,16.21
2022-12-23T21:58:43.199Z,16.21
2022-12-23T22:01:15.487Z,16.19
2022-12-23T22:03:43.322Z,16.19
2022-12-23T22:06:12.811Z,16.18
2022-12-23T22:08:40.017Z,16.20
2022-12-23T22:11:15.080Z,16.18
2022-12-23T22:13:42.342Z,16.17
2022-12-23T22:16:16.354Z,16.15
2022-12-23T22:18:43.893Z,16.15
2022-12-23T22:21:16.443Z,16.14
2022-12-23T22:23:43.472Z,16.14
2022-12-23T22:26:12.792Z,16.14
2022-12-23T22:28:39.974Z,16.13
2022-12-23T22:31:08.797Z,16.12
2022-12-23T22:33:35.596Z,16.13
2022-12-23T22:36:02.318Z,16.11
2022-12-23T22:38:29.181Z,16.10
2022-12-23T22:40:55.908Z,16.09
2022-12-23T22:43:22.676Z,16.08
2022-12-23T22:45:59.216Z,16.06
2022-12-23T22:48:28.809Z,16.07
2022-12-23T22:51:25.504Z,16.06
2022-12-23T22:53:52.702Z,16.06
2022-12-23T22:56:20.806Z,16.05
2022-12-23T22:58:48.369Z,16.04
2022-12-23T23:01:22.408Z,16.01
2022-12-23T23:03:54.260Z,16.02
2022-12-23T23:06:21.011Z,16.02
2022-12-23T23:08:47.674Z,16.01
2022-12-23T23:11:14.496Z,16.01
2022-12-23T23:13:41.185Z,16.00
2022-12-23T23:16:08.149Z,16.00
2022-12-23T23:18:34.999Z,16.01
2022-12-23T23:21:01.877Z,15.99
2022-12-23T23:23:28.526Z,15.97
2022-12-23T23:25:55.349Z,15.97
2022-12-23T23:28:22.123Z,15.94
2022-12-23T23:30:55.412Z,15.94
2022-12-23T23:33:30.503Z,15.94
2022-12-23T23:35:58.654Z,15.93
2022-12-23T23:38:26.679Z,15.92
2022-12-23T23:40:54.956Z,15.92
2022-12-23T23:43:22.065Z,15.92
2022-12-23T23:45:49.066Z,15.90
2022-12-23T23:48:16.281Z,15.89
2022-12-23T23:50:43.466Z,15.88
2022-12-23T23:53:13.781Z,15.88
2022-12-23T23:55:40.567Z,15.88
2022-12-23T23:58:07.747Z,15.87
